createdAt,value
2023-03-05T00:01:56.535Z,1.70
2023-03-05T00:04:23.548Z,2.10
2023-03-05T00:06:50.179Z,1.98
2023-03-05T00:09:16.931Z,1.80
2023-03-05T00:11:43.481Z,2.28
2023-03-05T00:14:10.322Z,2.33
2023-03-05T00:16:36.833Z,2.20
2023-03-05T00:19:03.402Z,1.90
2023-03-05T00:21:31.924Z,2.83
2023-03-05T00:24:03.153Z,3.25
2023-03-05T00:26:30.751Z,2.50
2023-03-05T00:28:58.098Z,1.67
2023-03-05T00:31:30.269Z,1.20
2023-03-05T00:33:59.493Z,1.50
2023-03-05T00:36:26.301Z,3.10
2023-03-05T00:38:53.154Z,1.90
2023-03-05T00:41:19.983Z,2.22
2023-03-05T00:43:46.883Z,1.70
2023-03-05T00:46:13.378Z,1.02
2023-03-05T00:48:39.787Z,1.77
2023-03-05T00:51:06.151Z,1.20
2023-03-05T00:53:32.818Z,1.40
2023-03-05T00:55:59.306Z,1.70
2023-03-05T00:58:25.920Z,0.90
2023-03-05T01:00:52.732Z,1.00
2023-03-05T01:03:19.308Z,1.13
2023-03-05T01:05:45.888Z,0.80
2023-03-05T01:08:12.464Z,0.90
2023-03-05T01:10:38.867Z,0.90
2023-03-05T01:13:05.498Z,2.08
2023-03-05T01:15:31.976Z,1.40
2023-03-05T01:17:58.387Z,1.02
2023-03-05T01:20:25.155Z,1.10
2023-03-05T01:22:51.672Z,1.70
2023-03-05T01:25:18.739Z,1.15
2023-03-05T01:27:45.635Z,2.20
2023-03-05T01:30:14.441Z,1.88
2023-03-05T01:32:41.196Z,0.98
2023-03-05T01:35:08.358Z,1.58
2023-03-05T01:37:35.536Z,2.05
2023-03-05T01:40:02.149Z,1.85
2023-03-05T01:42:29.885Z,1.73
2023-03-05T01:45:02.972Z,1.52
2023-03-05T01:47:29.850Z,1.63
2023-03-05T01:49:56.781Z,1.75
2023-03-05T01:52:26.491Z,1.58
2023-03-05T01:55:00.958Z,1.50
2023-03-05T01:57:36.086Z,1.98
2023-03-05T02:00:09.837Z,2.30
2023-03-05T02:02:36.654Z,1.17
2023-03-05T02:05:19.350Z,1.30
2023-03-05T02:07:46.866Z,1.13
2023-03-05T02:10:21.858Z,1.98
2023-03-05T02:12:50.030Z,1.42
2023-03-05T02:15:17.162Z,1.35
2023-03-05T02:17:43.896Z,0.85
2023-03-05T02:20:17.450Z,1.30
2023-03-05T02:22:43.906Z,1.25
2023-03-05T02:25:14.302Z,1.50
2023-03-05T02:27:44.511Z,1.02
2023-03-05T02:30:12.507Z,0.90
2023-03-05T02:32:38.959Z,0.80
2023-03-05T02:35:06.507Z,0.90
2023-03-05T02:37:32.975Z,1.00
2023-03-05T02:39:59.360Z,1.00
2023-03-05T02:42:26.599Z,0.90
2023-03-05T02:44:53.014Z,0.70
2023-03-05T02:47:19.494Z,0.80
2023-03-05T02:49:45.987Z,1.08
2023-03-05T02:52:12.382Z,1.00
2023-03-05T02:54:38.790Z,1.23
2023-03-05T02:57:05.234Z,1.08
2023-03-05T02:59:31.730Z,1.42
2023-03-05T03:01:58.536Z,1.05
2023-03-05T03:04:25.849Z,0.95
2023-03-05T03:06:52.349Z,0.73
2023-03-05T03:09:18.850Z,0.93
2023-03-05T03:11:45.218Z,0.93
2023-03-05T03:14:11.725Z,0.77
2023-03-05T03:16:38.223Z,0.77
2023-03-05T03:19:05.015Z,1.20
2023-03-05T03:21:31.871Z,1.77
2023-03-05T03:23:58.459Z,1.00
2023-03-05T03:26:24.851Z,0.80
2023-03-05T03:28:51.345Z,1.00
2023-03-05T03:31:17.797Z,0.90
2023-03-05T03:33:44.837Z,0.90
2023-03-05T03:36:11.408Z,0.82
2023-03-05T03:38:38.190Z,0.70
2023-03-05T03:41:08.886Z,0.73
2023-03-05T03:43:36.279Z,1.27
2023-03-05T03:46:07.331Z,0.93
2023-03-05T03:48:34.109Z,0.70
2023-03-05T03:51:04.771Z,0.63
2023-03-05T03:53:31.276Z,0.70
2023-03-05T03:55:59.349Z,0.63
2023-03-05T03:58:25.801Z,1.30
2023-03-05T04:00:52.236Z,0.38
2023-03-05T04:03:18.995Z,0.40
2023-03-05T04:05:45.349Z,0.60
2023-03-05T04:08:12.578Z,0.43
2023-03-05T04:10:39.726Z,0.70
2023-03-05T04:13:06.721Z,0.70
2023-03-05T04:15:33.563Z,0.40
2023-03-05T04:18:00.578Z,0.47
2023-03-05T04:20:26.959Z,0.68
2023-03-05T04:22:53.326Z,0.47
2023-03-05T04:25:19.901Z,0.60
2023-03-05T04:27:46.297Z,0.47
2023-03-05T04:30:16.974Z,0.60
2023-03-05T04:32:43.533Z,0.47
2023-03-05T04:35:10.421Z,0.50
2023-03-05T04:37:37.287Z,0.63
2023-03-05T04:40:04.861Z,0.57
2023-03-05T04:42:31.507Z,0.70
2023-03-05T04:44:57.980Z,0.60
2023-03-05T04:47:24.411Z,0.45
2023-03-05T04:49:50.941Z,0.40
2023-03-05T04:52:17.480Z,0.77
2023-03-05T04:54:45.412Z,0.60
2023-03-05T04:57:12.097Z,0.47
2023-03-05T04:59:38.819Z,0.60
2023-03-05T05:02:05.391Z,0.80
2023-03-05T05:04:32.041Z,0.38
2023-03-05T05:06:58.934Z,0.70
2023-03-05T05:09:25.978Z,0.60
2023-03-05T05:14:19.090Z,0.50
2023-03-05T05:16:45.871Z,0.65
2023-03-05T05:19:12.398Z,0.70
2023-03-05T05:21:38.838Z,0.50
2023-03-05T05:24:05.422Z,0.60
2023-03-05T05:26:32.017Z,0.60
2023-03-05T05:28:58.441Z,0.45
2023-03-05T05:31:24.981Z,0.60
2023-03-05T05:33:52.720Z,0.52
2023-03-05T05:36:20.064Z,0.73
2023-03-05T05:38:46.530Z,0.70
2023-03-05T05:41:16.017Z,1.30
2023-03-05T05:43:43.249Z,0.77
2023-03-05T05:46:16.178Z,0.80
2023-03-05T05:48:43.971Z,0.70
2023-03-05T05:51:16.456Z,0.63
2023-03-05T05:53:43.662Z,0.45
2023-03-05T05:58:39.713Z,0.70
2023-03-05T06:01:18.472Z,0.60
2023-03-05T06:03:45.319Z,0.30
2023-03-05T06:06:14.224Z,0.70
2023-03-05T06:08:40.703Z,0.68
2023-03-05T06:11:07.669Z,0.40
2023-03-05T06:13:34.594Z,0.43
2023-03-05T06:16:03.612Z,0.52
2023-03-05T06:18:30.994Z,0.70
2023-03-05T06:20:59.877Z,0.63
2023-03-05T06:23:27.491Z,0.40
2023-03-05T06:25:54.490Z,0.40
2023-03-05T06:28:21.607Z,0.50
2023-03-05T06:33:14.548Z,0.88
2023-03-05T06:35:41.130Z,0.90
2023-03-05T06:38:08.521Z,1.10
2023-03-05T06:43:01.778Z,1.92
2023-03-05T06:45:28.480Z,1.20
2023-03-05T06:47:55.043Z,3.80
2023-03-05T06:50:21.563Z,6.78
2023-03-05T06:52:51.966Z,1.60
2023-03-05T06:55:18.993Z,1.85
2023-03-05T06:57:45.730Z,1.00
2023-03-05T07:00:13.179Z,1.13
2023-03-05T07:02:39.734Z,1.50
2023-03-05T07:05:07.910Z,1.50
2023-03-05T07:07:34.597Z,2.38
2023-03-05T07:10:01.388Z,3.10
2023-03-05T07:12:27.812Z,2.47
2023-03-05T07:14:54.470Z,2.08
2023-03-05T07:17:20.883Z,1.50
2023-03-05T07:19:47.340Z,1.60
2023-03-05T07:22:16.428Z,1.63
2023-03-05T07:24:43.129Z,2.60
2023-03-05T07:27:09.553Z,4.10
2023-03-05T07:29:36.020Z,4.10
2023-03-05T07:32:02.778Z,2.75
2023-03-05T07:34:29.255Z,1.80
2023-03-05T07:36:55.693Z,1.77
2023-03-05T07:39:22.298Z,1.10
2023-03-05T07:41:50.886Z,1.80
2023-03-05T07:44:17.692Z,0.95
2023-03-05T07:46:44.626Z,1.65
2023-03-05T07:49:11.281Z,1.00
2023-03-05T07:51:37.841Z,1.50
2023-03-05T07:54:04.435Z,1.70
2023-03-05T07:56:35.252Z,1.33
2023-03-05T07:59:05.396Z,2.65
2023-03-05T08:01:32.139Z,2.13
2023-03-05T08:03:58.876Z,1.90
2023-03-05T08:06:25.331Z,2.67
2023-03-05T08:08:53.046Z,2.10
2023-03-05T08:11:19.585Z,2.90
2023-03-05T08:13:46.214Z,2.05
2023-03-05T08:16:16.572Z,2.05
2023-03-05T08:18:43.733Z,3.50
2023-03-05T08:23:47.585Z,2.20
2023-03-05T08:26:16.098Z,2.70
2023-03-05T08:28:42.999Z,2.40
2023-03-05T08:31:13.851Z,1.92
2023-03-05T08:33:40.916Z,2.65
2023-03-05T08:38:35.310Z,2.80
2023-03-05T08:41:02.648Z,2.50
2023-03-05T08:43:30.886Z,2.15
2023-03-05T08:45:57.625Z,1.88
2023-03-05T08:48:24.031Z,2.45
2023-03-05T08:50:50.474Z,2.22
2023-03-05T08:53:16.956Z,1.70
2023-03-05T08:55:44.301Z,1.90
2023-03-05T08:58:10.777Z,2.30
2023-03-05T09:00:37.250Z,2.38
2023-03-05T09:03:03.945Z,1.65
2023-03-05T09:05:30.746Z,1.80
2023-03-05T09:07:58.701Z,1.65
2023-03-05T09:10:25.133Z,2.25
2023-03-05T09:12:51.676Z,2.03
2023-03-05T09:15:18.261Z,2.55
2023-03-05T09:17:44.723Z,2.33
2023-03-05T09:20:13.006Z,1.80
2023-03-05T09:22:40.548Z,1.92
2023-03-05T09:25:08.671Z,1.50
2023-03-05T09:27:36.762Z,2.00
2023-03-05T09:30:05.119Z,1.90
2023-03-05T09:32:31.794Z,1.88
2023-03-05T09:34:58.948Z,2.63
2023-03-05T09:39:52.450Z,2.10
2023-03-05T09:42:44.610Z,2.42
2023-03-05T09:45:26.651Z,2.33
2023-03-05T09:47:53.593Z,2.70
2023-03-05T09:50:45.312Z,2.55
2023-03-05T09:53:23.565Z,2.25
2023-03-05T09:55:55.544Z,2.80
2023-03-05T09:58:35.195Z,2.22
2023-03-05T10:01:17.254Z,1.73
2023-03-05T10:03:49.321Z,1.83
2023-03-05T10:06:23.469Z,1.80
2023-03-05T10:09:02.301Z,2.33
2023-03-05T10:11:50.806Z,1.88
2023-03-05T10:14:29.259Z,2.50
2023-03-05T10:17:09.901Z,2.72
2023-03-05T10:20:12.247Z,2.03
2023-03-05T10:22:46.119Z,2.42
2023-03-05T10:25:23.623Z,2.20
2023-03-05T10:28:01.092Z,2.08
2023-03-05T10:30:54.385Z,2.42
2023-03-05T10:33:39.869Z,2.17
2023-03-05T10:36:11.115Z,2.55
2023-03-05T10:38:50.850Z,2.33
2023-03-05T10:41:29.050Z,2.15
2023-03-05T10:44:06.208Z,2.60
2023-03-05T10:46:36.608Z,2.35
2023-03-05T10:49:15.459Z,2.25
2023-03-05T10:51:51.786Z,2.33
2023-03-05T10:54:28.863Z,1.63
2023-03-05T10:57:13.462Z,2.53
2023-03-05T11:00:00.802Z,2.42
2023-03-05T11:02:27.358Z,2.55
2023-03-05T11:04:54.800Z,2.20
2023-03-05T11:07:22.607Z,2.38
2023-03-05T11:10:17.444Z,2.25
2023-03-05T11:12:44.255Z,2.40
2023-03-05T11:15:13.494Z,2.53
2023-03-05T11:18:03.091Z,2.80
2023-03-05T11:20:36.468Z,1.95
2023-03-05T11:23:05.957Z,2.05
2023-03-05T11:25:34.723Z,2.22
2023-03-05T11:28:03.243Z,2.50
2023-03-05T11:30:32.797Z,1.98
2023-03-05T11:33:19.335Z,1.58
2023-03-05T11:35:47.595Z,1.73
2023-03-05T11:38:24.546Z,2.10
2023-03-05T11:40:52.806Z,2.13
2023-03-05T11:43:25.063Z,2.05
2023-03-05T11:46:01.971Z,2.30
2023-03-05T11:48:34.578Z,2.10
2023-03-05T11:51:02.874Z,2.25
2023-03-05T11:53:32.215Z,1.90
2023-03-05T11:56:13.440Z,1.73
2023-03-05T11:58:52.047Z,2.22
2023-03-05T12:01:27.220Z,2.05
2023-03-05T12:03:55.452Z,1.70
2023-03-05T12:06:48.257Z,1.98
2023-03-05T12:09:19.683Z,1.30
2023-03-05T12:11:51.470Z,1.98
2023-03-05T12:14:26.808Z,1.30
2023-03-05T12:17:28.836Z,1.52
2023-03-05T12:20:14.634Z,1.55
2023-03-05T12:22:42.013Z,2.03
2023-03-05T12:25:46.416Z,1.80
2023-03-05T12:28:34.175Z,2.30
2023-03-05T12:31:38.187Z,2.45
2023-03-05T12:34:35.375Z,2.05
2023-03-05T12:37:01.831Z,2.05
2023-03-05T12:40:04.561Z,2.60
2023-03-05T12:42:31.347Z,3.50
2023-03-05T12:45:36.158Z,3.08
2023-03-05T12:48:02.466Z,2.83
2023-03-05T12:50:29.193Z,2.80
2023-03-05T12:53:11.267Z,3.13
2023-03-05T12:56:12.993Z,2.75
2023-03-05T12:58:51.222Z,3.17
2023-03-05T13:01:31.544Z,2.63
2023-03-05T13:04:14.576Z,3.00
2023-03-05T13:06:41.019Z,3.25
2023-03-05T13:09:15.747Z,3.33
2023-03-05T13:11:46.960Z,3.17
2023-03-05T13:14:46.169Z,2.95
2023-03-05T13:17:31.914Z,3.30
2023-03-05T13:19:59.603Z,3.08
2023-03-05T13:22:26.638Z,3.95
2023-03-05T13:27:43.381Z,3.90
2023-03-05T13:35:22.424Z,4.10
2023-03-05T13:37:49.629Z,4.05
2023-03-05T13:40:26.075Z,4.00
2023-03-05T13:42:53.424Z,4.78
2023-03-05T13:45:30.470Z,3.90
2023-03-05T13:48:00.904Z,4.20
2023-03-05T13:50:35.726Z,3.35
2023-03-05T13:53:18.176Z,3.72
2023-03-05T13:55:54.426Z,3.90
2023-03-05T13:58:48.658Z,4.00
2023-03-05T14:01:23.970Z,3.10
2023-03-05T14:03:52.290Z,3.60
2023-03-05T14:06:21.886Z,4.28
2023-03-05T14:09:02.675Z,4.65
2023-03-05T14:11:29.811Z,4.45
2023-03-05T14:16:32.645Z,5.13
2023-03-05T14:19:02.183Z,5.38
2023-03-05T14:21:50.156Z,4.70
2023-03-05T14:24:28.228Z,4.68
2023-03-05T14:26:57.118Z,5.85
2023-03-05T14:29:28.633Z,5.00
2023-03-05T14:32:06.082Z,5.35
2023-03-05T14:34:40.420Z,5.45
2023-03-05T14:37:25.615Z,5.38
2023-03-05T14:42:38.380Z,4.95
2023-03-05T14:45:21.570Z,5.45
2023-03-05T14:47:50.847Z,4.03
2023-03-05T14:50:23.176Z,6.30
2023-03-05T14:52:52.936Z,4.72
2023-03-05T14:55:22.870Z,5.75
2023-03-05T14:57:51.513Z,5.60
2023-03-05T15:00:22.267Z,5.75
2023-03-05T15:02:49.373Z,4.57
2023-03-05T15:05:17.096Z,4.47
2023-03-05T15:07:45.343Z,4.97
2023-03-05T15:10:21.895Z,5.13
2023-03-05T15:12:50.507Z,4.97
2023-03-05T15:15:19.811Z,4.93
2023-03-05T15:17:49.074Z,4.45
2023-03-05T15:20:19.097Z,4.40
2023-03-05T15:22:45.654Z,5.15
2023-03-05T15:25:12.381Z,4.28
2023-03-05T15:27:40.001Z,4.78
2023-03-05T15:30:09.179Z,4.43
2023-03-05T15:32:35.805Z,4.50
2023-03-05T15:35:02.361Z,4.78
2023-03-05T15:37:28.825Z,4.72
2023-03-05T15:39:55.466Z,4.88
2023-03-05T15:42:21.822Z,4.82
2023-03-05T15:47:15.302Z,4.32
2023-03-05T15:49:41.889Z,4.15
2023-03-05T15:52:08.461Z,4.63
2023-03-05T15:54:36.243Z,4.50
2023-03-05T15:57:03.478Z,4.05
2023-03-05T15:59:30.076Z,4.07
2023-03-05T16:01:56.549Z,4.45
2023-03-05T16:04:23.109Z,4.90
2023-03-05T16:06:50.477Z,7.03
2023-03-05T16:09:19.467Z,5.82
2023-03-05T16:11:48.026Z,5.57
2023-03-05T16:14:19.496Z,5.18
2023-03-05T16:16:46.401Z,4.95
2023-03-05T16:19:16.098Z,12.90
2023-03-05T16:21:42.604Z,7.75
2023-03-05T16:24:09.568Z,4.55
2023-03-05T16:26:37.273Z,8.63
2023-03-05T16:29:03.874Z,7.30
2023-03-05T16:31:32.495Z,4.30
2023-03-05T16:33:58.930Z,10.68
2023-03-05T16:36:27.882Z,5.93
2023-03-05T16:38:56.617Z,5.85
2023-03-05T16:41:24.507Z,4.55
2023-03-05T16:43:53.539Z,7.28
2023-03-05T16:46:20.318Z,5.97
2023-03-05T16:48:46.726Z,5.00
2023-03-05T16:51:13.282Z,4.13
2023-03-05T16:53:40.346Z,5.88
2023-03-05T16:58:37.085Z,6.88
2023-03-05T17:01:08.067Z,7.20
2023-03-05T17:03:35.005Z,7.40
2023-03-05T17:06:01.405Z,8.95
2023-03-05T17:08:27.926Z,10.43
2023-03-05T17:10:54.418Z,3.50
2023-03-05T17:13:20.817Z,5.18
2023-03-05T17:15:47.246Z,8.00
2023-03-05T17:18:13.625Z,7.82
2023-03-05T17:20:40.789Z,9.43
2023-03-05T17:23:07.491Z,7.25
2023-03-05T17:25:33.987Z,4.70
2023-03-05T17:28:00.803Z,13.70
2023-03-05T17:30:28.395Z,14.93
2023-03-05T17:32:54.968Z,7.28
2023-03-05T17:35:22.600Z,9.05
2023-03-05T17:37:49.690Z,5.85
2023-03-05T17:42:42.992Z,4.47
2023-03-05T17:45:09.839Z,4.43
2023-03-05T17:47:36.979Z,5.32
2023-03-05T17:50:03.989Z,7.47
2023-03-05T17:54:58.433Z,8.30
2023-03-05T17:57:26.416Z,7.07
2023-03-05T17:59:52.935Z,6.90
2023-03-05T18:02:19.377Z,6.28
2023-03-05T18:04:47.835Z,5.60
2023-03-05T18:07:14.449Z,5.15
2023-03-05T18:09:40.954Z,4.60
2023-03-05T18:12:07.583Z,5.30
2023-03-05T18:14:48.857Z,5.35
2023-03-05T18:17:15.471Z,5.35
2023-03-05T18:19:42.819Z,4.82
2023-03-05T18:22:17.090Z,4.90
2023-03-05T18:24:47.156Z,4.57
2023-03-05T18:27:13.973Z,3.88
2023-03-05T18:29:40.517Z,3.60
2023-03-05T18:32:07.131Z,3.85
2023-03-05T18:34:33.650Z,4.38
2023-03-05T18:37:00.760Z,4.18
2023-03-05T18:41:57.133Z,4.10
2023-03-05T18:44:23.732Z,4.30
2023-03-05T18:46:50.205Z,4.35
2023-03-05T18:49:16.640Z,3.80
2023-03-05T18:51:43.427Z,4.32
2023-03-05T18:54:10.185Z,4.30
2023-03-05T18:56:36.642Z,4.10
2023-03-05T18:59:03.468Z,4.05
2023-03-05T19:01:30.368Z,4.20
2023-03-05T19:03:57.295Z,4.60
2023-03-05T19:06:23.791Z,4.93
2023-03-05T19:08:56.890Z,5.68
2023-03-05T19:11:23.545Z,5.25
2023-03-05T19:13:51.274Z,5.15
2023-03-05T19:16:30.877Z,6.28
2023-03-05T19:19:16.446Z,4.90
2023-03-05T19:21:45.343Z,4.30
2023-03-05T19:24:12.131Z,4.28
2023-03-05T19:26:39.683Z,3.80
2023-03-05T19:29:07.299Z,3.45
2023-03-05T19:31:35.298Z,4.47
2023-03-05T19:34:01.869Z,4.13
2023-03-05T19:36:28.270Z,4.28
2023-03-05T19:38:55.052Z,7.78
2023-03-05T19:41:21.812Z,18.90
2023-03-05T19:43:49.846Z,18.90
2023-03-05T19:46:17.209Z,6.30
2023-03-05T19:48:44.222Z,5.90
2023-03-05T19:51:13.893Z,5.00
2023-03-05T19:53:41.661Z,5.05
2023-03-05T19:56:09.048Z,4.97
2023-03-05T19:58:36.686Z,5.47
2023-03-05T20:01:26.129Z,5.13
2023-03-05T20:03:57.686Z,6.05
2023-03-05T20:06:26.003Z,5.97
2023-03-05T20:08:52.639Z,6.18
2023-03-05T20:11:20.681Z,6.20
2023-03-05T20:13:48.020Z,4.82
2023-03-05T20:18:46.236Z,5.40
2023-03-05T20:21:18.623Z,4.75
2023-03-05T20:23:45.028Z,4.72
2023-03-05T20:26:11.431Z,4.30
2023-03-05T20:28:38.165Z,5.22
2023-03-05T20:31:04.796Z,4.13
2023-03-05T20:33:31.325Z,5.93
2023-03-05T20:35:57.749Z,4.72
2023-03-05T20:38:25.910Z,4.43
2023-03-05T20:40:55.437Z,5.45
2023-03-05T20:43:23.031Z,4.68
2023-03-05T20:45:50.276Z,5.07
2023-03-05T20:48:17.047Z,4.32
2023-03-05T20:50:43.527Z,4.50
2023-03-05T20:53:10.062Z,4.97
2023-03-05T20:55:36.422Z,4.65
2023-03-05T20:58:02.924Z,3.63
2023-03-05T21:00:30.339Z,4.15
2023-03-05T21:02:56.917Z,4.07
2023-03-05T21:05:30.032Z,3.67
2023-03-05T21:10:24.045Z,3.97
2023-03-05T21:12:53.492Z,4.13
2023-03-05T21:15:27.075Z,4.57
2023-03-05T21:17:54.251Z,4.70
2023-03-05T21:20:24.487Z,5.00
2023-03-05T21:22:50.878Z,4.40
2023-03-05T21:25:27.576Z,4.97
2023-03-05T21:28:09.404Z,4.95
2023-03-05T21:30:43.496Z,4.47
2023-03-05T21:33:12.940Z,4.60
2023-03-05T21:35:40.498Z,6.03
2023-03-05T21:38:08.383Z,5.22
2023-03-05T21:40:36.523Z,4.57
2023-03-05T21:43:04.027Z,4.95
2023-03-05T21:45:30.962Z,4.93
2023-03-05T21:47:59.086Z,5.63
2023-03-05T21:50:26.034Z,4.35
2023-03-05T21:52:52.538Z,5.05
2023-03-05T21:55:24.011Z,4.72
2023-03-05T21:57:50.513Z,5.75
2023-03-05T22:00:22.492Z,4.75
2023-03-05T22:02:50.317Z,4.22
2023-03-05T22:05:17.304Z,5.00
2023-03-05T22:07:43.979Z,4.70
2023-03-05T22:10:14.134Z,5.22
2023-03-05T22:12:54.064Z,4.50
2023-03-05T22:15:21.034Z,4.38
2023-03-05T22:17:47.406Z,4.45
2023-03-05T22:20:14.318Z,5.60
2023-03-05T22:22:41.578Z,5.47
2023-03-05T22:25:08.866Z,4.60
2023-03-05T22:27:36.096Z,5.82
2023-03-05T22:30:03.436Z,5.05
2023-03-05T22:32:34.069Z,5.85
2023-03-05T22:35:00.621Z,4.88
2023-03-05T22:37:29.509Z,4.70
2023-03-05T22:39:56.830Z,5.00
2023-03-05T22:42:24.293Z,5.55
2023-03-05T22:44:56.042Z,4.47
2023-03-05T22:47:22.695Z,6.28
2023-03-05T22:49:49.148Z,5.60
2023-03-05T22:52:15.539Z,5.03
2023-03-05T22:54:42.013Z,5.75
2023-03-05T22:57:08.681Z,4.88
2023-03-05T22:59:35.170Z,4.57
2023-03-05T23:02:01.596Z,5.57
2023-03-05T23:04:40.088Z,4.45
2023-03-05T23:07:06.803Z,4.95
2023-03-05T23:09:33.209Z,4.55
2023-03-05T23:11:59.661Z,6.00
2023-03-05T23:14:26.140Z,6.03
2023-03-05T23:16:52.504Z,5.00
2023-03-05T23:19:18.965Z,5.15
2023-03-05T23:21:45.401Z,5.00
2023-03-05T23:24:11.836Z,5.22
2023-03-05T23:26:38.433Z,5.75
2023-03-05T23:29:04.796Z,6.60
2023-03-05T23:31:31.314Z,5.90
2023-03-05T23:33:58.416Z,5.75
2023-03-05T23:38:57.263Z,5.35
2023-03-05T23:41:23.744Z,4.55
2023-03-05T23:43:51.237Z,5.22
2023-03-05T23:46:17.746Z,5.75
2023-03-05T23:48:44.193Z,4.93
2023-03-05T23:51:11.264Z,5.28
2023-03-05T23:56:09.989Z,4.60
2023-03-05T23:58:37.623Z,5.38
